Time;durP1;ratioP1;P1;durP2;ratioP2;P2;SDS_P1;SDS_P2;PMS_P1;PMS_P2;Temp;Humidity;BMP_temperature;BMP_pressure;BME280_temperature;BME280_humidity;BME280_pressure;Samples;Min_cycle;Max_cycle;Signal;HPM_P1;HPM_P2
2023/04/26 05:14:57;;;;;;;27.85;12.45;;;;;;;2.72;98.84;96651.88;2084345;28;21093;-61
2023/04/26 06:56:27;;;;;;;11.27;5.25;;;;;;;7.57;67.13;96692.78;2075141;28;20566;-61
2023/04/26 06:58:36;;;;;;;11.93;5.10;;;;;;;7.39;67.47;96678.66;2086996;28;20553;-61
2023/04/26 06:59:38;;;;;;;28.85;5.45;;;;;;;7.80;67.12;96681.69;2077406;28;20193;-61
2023/04/26 07:00:39;;;;;;;13.20;5.47;;;;;;;7.83;66.87;96692.81;2078291;28;20221;-61
2023/04/26 07:01:41;;;;;;;13.85;6.35;;;;;;;7.91;66.86;96689.09;2073156;28;20253;-61
2023/04/26 07:02:42;;;;;;;11.63;5.65;;;;;;;8.22;68.01;96680.28;2068117;28;20285;-62
2023/04/26 07:03:44;;;;;;;13.10;5.47;;;;;;;8.58;68.22;96687.72;2070734;28;20209;-61
2023/04/26 07:04:45;;;;;;;17.80;5.43;;;;;;;8.59;66.56;96685.03;2071807;28;20282;-61
2023/04/26 07:05:47;;;;;;;18.48;5.50;;;;;;;8.60;65.88;96685.91;2068734;28;20259;-61
2023/04/26 07:06:50;;;;;;;14.65;4.88;;;;;;;8.87;65.34;96681.44;2069366;28;20225;-61
2023/04/26 07:07:51;;;;;;;17.65;4.55;;;;;;;9.21;63.34;96681.91;2073763;28;20201;-61
2023/04/26 07:08:52;;;;;;;12.23;4.75;;;;;;;8.93;60.83;96680.38;2073321;28;20189;-61
2023/04/26 07:09:54;;;;;;;13.82;5.85;;;;;;;8.29;62.24;96682.59;2072599;28;20208;-61
2023/04/26 07:10:56;;;;;;;13.00;5.50;;;;;;;8.17;62.94;96680.44;2070175;28;20194;-61
2023/04/26 07:11:57;;;;;;;11.93;4.97;;;;;;;8.46;64.19;96663.81;2072532;28;20202;-60
2023/04/26 07:15:47;;;;;;;12.55;4.68;;;;;;;8.47;64.76;96664.69;2092745;27;20578;-61
2023/04/26 07:18:56;;;;;;;14.85;4.00;;;;;;;8.55;64.36;96677.41;2085052;28;20573;-61
2023/04/26 07:19:58;;;;;;;13.18;3.75;;;;;;;8.68;64.87;96680.41;2082250;28;20201;-61
2023/04/26 07:20:59;;;;;;;11.63;3.63;;;;;;;8.72;65.75;96675.03;2080907;28;20255;-61
2023/04/26 07:22:01;;;;;;;19.88;4.57;;;;;;;8.64;65.64;96677.06;2073014;28;20216;-61
2023/04/26 07:23:02;;;;;;;16.52;4.40;;;;;;;8.84;64.95;96673.75;2073956;28;20206;-61
2023/04/26 07:24:05;;;;;;;12.70;5.40;;;;;;;9.06;64.97;96671.16;2074564;28;20561;-61
2023/04/26 07:25:07;;;;;;;13.27;5.43;;;;;;;8.72;64.96;96675.03;2070873;28;20202;-61
2023/04/26 07:26:11;;;;;;;18.40;4.40;;;;;;;9.25;61.99;96679.13;2071017;28;20206;-61
2023/04/26 07:27:13;;;;;;;10.15;3.63;;;;;;;9.67;62.12;96669.66;2074252;28;21171;-61
2023/04/26 07:28:14;;;;;;;9.68;3.53;;;;;;;9.68;62.11;96670.53;2074091;28;20203;-61
2023/04/26 07:29:17;;;;;;;12.52;3.53;;;;;;;9.53;60.21;96670.22;2074508;28;20204;-61
2023/04/26 07:30:19;;;;;;;16.63;4.30;;;;;;;8.82;59.43;96665.13;2074448;28;20219;-61
2023/04/26 07:31:20;;;;;;;19.48;5.15;;;;;;;8.92;62.08;96665.63;2073007;28;20684;-61
2023/04/26 07:32:22;;;;;;;10.50;4.60;;;;;;;9.17;63.12;96660.34;2075039;28;20236;-61
2023/04/26 07:33:23;;;;;;;13.27;3.92;;;;;;;9.30;63.64;96666.75;2073406;28;20203;-61
2023/04/26 07:34:25;;;;;;;10.77;4.40;;;;;;;9.28;63.46;96673.81;2073918;28;20206;-61
2023/04/26 07:35:27;;;;;;;16.30;4.50;;;;;;;9.18;63.99;96669.00;2071983;28;20204;-61
2023/04/26 07:36:28;;;;;;;9.25;3.55;;;;;;;9.35;62.27;96669.19;2072655;28;20319;-61
2023/04/26 07:37:29;;;;;;;9.73;4.07;;;;;;;9.36;61.07;96673.50;2072683;28;20202;-61
2023/04/26 07:38:31;;;;;;;9.27;4.22;;;;;;;9.74;62.20;96671.13;2070656;28;20218;-61
2023/04/26 07:39:32;;;;;;;12.43;3.53;;;;;;;10.19;61.81;96664.03;2070972;28;20208;-62
2023/04/26 07:40:34;;;;;;;12.20;4.25;;;;;;;10.60;61.42;96664.03;2074058;28;20291;-61
2023/04/26 07:41:35;;;;;;;9.40;4.25;;;;;;;10.76;61.60;96661.56;2069715;28;20658;-61
2023/04/26 07:42:36;;;;;;;15.75;4.80;;;;;;;11.26;61.25;96659.28;2071399;28;20293;-61
2023/04/26 07:43:38;;;;;;;9.88;4.05;;;;;;;11.46;60.85;96657.50;2071861;28;20197;-61
2023/04/26 07:44:42;;;;;;;10.27;4.30;;;;;;;11.58;60.18;96649.91;2070269;28;20202;-61
2023/04/26 07:45:44;;;;;;;16.50;4.30;;;;;;;11.69;59.16;96661.63;2074255;28;20545;-61
2023/04/26 07:46:45;;;;;;;10.07;4.53;;;;;;;11.96;59.49;96661.22;2073657;28;20263;-62
2023/04/26 07:47:47;;;;;;;11.98;4.20;;;;;;;11.96;58.89;96669.94;2075294;28;20553;-61
2023/04/26 07:48:48;;;;;;;11.30;4.00;;;;;;;11.54;58.60;96666.69;2074070;28;20261;-62
2023/04/26 07:49:53;;;;;;;9.10;4.35;;;;;;;10.98;60.96;96676.25;2070544;28;20289;-62
2023/04/26 07:50:55;;;;;;;14.88;5.00;;;;;;;11.11;60.35;96666.09;2070293;28;20203;-62
2023/04/26 07:52:00;;;;;;;7.50;3.63;;;;;;;11.11;60.78;96666.94;2070570;28;20209;-61
2023/04/26 07:53:02;;;;;;;9.48;4.25;;;;;;;11.08;62.12;96676.69;2074106;28;20256;-61
2023/04/26 07:54:03;;;;;;;8.80;4.40;;;;;;;10.67;61.67;96669.81;2073280;28;20193;-61
2023/04/26 07:55:05;;;;;;;12.13;4.30;;;;;;;10.61;61.73;96672.69;2074472;28;20203;-62
2023/04/26 07:56:07;;;;;;;8.80;4.45;;;;;;;10.41;62.38;96676.19;2069995;28;20206;-62
2023/04/26 07:57:09;;;;;;;11.25;4.60;;;;;;;10.12;61.72;96670.44;2073763;28;20648;-61
2023/04/26 07:58:13;;;;;;;12.23;4.65;;;;;;;10.68;61.42;96668.91;2074778;28;20197;-61
2023/04/26 07:59:15;;;;;;;6.97;4.05;;;;;;;11.03;61.57;96673.44;2073006;28;20207;-61
2023/04/26 08:00:17;;;;;;;22.58;3.95;;;;;;;10.95;61.85;96668.56;2072562;28;20556;-61
2023/04/26 08:01:19;;;;;;;8.88;3.70;;;;;;;10.55;62.01;96676.44;2075976;28;20221;-62
2023/04/26 08:04:13;;;;;;;12.52;4.25;;;;;;;10.09;61.37;96668.81;2083730;28;21226;-61
2023/04/26 08:05:15;;;;;;;9.88;4.30;;;;;;;10.02;61.60;96680.41;2079415;28;20254;-61
2023/04/26 08:06:17;;;;;;;7.63;4.60;;;;;;;10.06;62.71;96684.56;2075710;28;20228;-61
2023/04/26 08:07:19;;;;;;;9.10;4.05;;;;;;;10.01;63.56;96678.69;2070289;28;20208;-61
2023/04/26 08:08:21;;;;;;;10.10;4.03;;;;;;;9.92;63.53;96685.16;2068811;28;20920;-61
2023/04/26 08:09:23;;;;;;;8.50;4.10;;;;;;;9.85;63.72;96682.84;2073071;28;20194;-61
2023/04/26 08:10:25;;;;;;;10.45;3.63;;;;;;;9.86;63.48;96682.78;2072477;28;20205;-61
2023/04/26 08:11:26;;;;;;;10.18;4.30;;;;;;;9.85;64.36;96672.44;2070884;28;20226;-61
2023/04/26 08:12:27;;;;;;;13.63;4.40;;;;;;;9.93;63.98;96686.84;2069729;28;20197;-61
2023/04/26 08:13:29;;;;;;;10.60;4.20;;;;;;;9.86;63.44;96680.19;2074367;28;20231;-61
2023/04/26 08:14:33;;;;;;;12.02;4.45;;;;;;;9.91;64.39;96683.44;2076957;28;20257;-61
2023/04/26 08:15:34;;;;;;;15.63;4.25;;;;;;;9.26;62.80;96686.03;2075953;28;20236;-61
2023/04/26 08:16:36;;;;;;;11.82;4.63;;;;;;;9.04;63.21;96682.53;2072080;28;20672;-61
2023/04/26 08:17:37;;;;;;;10.57;4.10;;;;;;;9.28;63.42;96685.97;2072768;28;20207;-61
2023/04/26 08:18:39;;;;;;;11.13;4.60;;;;;;;9.39;62.81;96683.78;2072791;28;20204;-61
2023/04/26 08:19:40;;;;;;;7.63;4.05;;;;;;;9.39;62.76;96677.75;2073162;28;20203;-61
2023/04/26 08:20:42;;;;;;;13.75;4.97;;;;;;;9.11;62.33;96677.03;2070046;28;20248;-61
2023/04/26 08:29:38;;;;;;;15.40;4.30;;;;;;;9.08;65.05;96684.16;2084093;28;20557;-61
2023/04/26 08:30:40;;;;;;;12.30;4.30;;;;;;;9.25;65.68;96694.75;2081305;28;20312;-61
2023/04/26 08:31:42;;;;;;;8.23;4.07;;;;;;;9.32;64.14;96685.78;2075601;28;20278;-61
2023/04/26 08:32:44;;;;;;;12.50;4.80;;;;;;;9.36;63.41;96688.28;2075366;28;20206;-61
2023/04/26 08:33:46;;;;;;;9.80;4.45;;;;;;;9.62;64.14;96684.63;2073450;28;20214;-61
2023/04/26 08:34:47;;;;;;;12.48;5.35;;;;;;;9.73;64.16;96687.66;2073329;28;20208;-61
2023/04/26 08:35:49;;;;;;;11.77;6.25;;;;;;;10.02;63.55;96695.19;2070805;28;20314;-61
2023/04/26 08:36:50;;;;;;;14.65;5.30;;;;;;;9.70;63.53;96692.16;2070514;28;20945;-61
2023/04/26 08:37:51;;;;;;;13.43;4.05;;;;;;;9.88;62.48;96683.59;2070984;28;20661;-61
2023/04/26 08:38:55;;;;;;;9.45;3.75;;;;;;;10.01;62.13;96693.53;2071023;28;20232;-61
2023/04/26 08:39:56;;;;;;;11.05;4.15;;;;;;;9.95;62.07;96690.25;2072742;28;20218;-62
2023/04/26 08:41:01;;;;;;;10.13;4.82;;;;;;;9.97;61.41;96696.25;2072387;28;20624;-61
2023/04/26 08:42:15;;;;;;;10.38;4.53;;;;;;;10.13;60.34;96698.19;2073264;28;20197;-62
2023/04/26 08:43:17;;;;;;;9.40;3.83;;;;;;;10.47;60.75;96696.81;2072836;28;20203;-62
2023/04/26 08:44:23;;;;;;;9.80;4.50;;;;;;;10.50;59.21;96674.94;2076940;28;20194;-62
2023/04/26 08:45:24;;;;;;;12.90;5.38;;;;;;;10.59;57.81;96691.06;2070463;28;20205;-62
2023/04/26 08:46:30;;;;;;;14.50;4.60;;;;;;;10.45;59.24;96691.66;2076847;28;20262;-63
2023/04/26 08:47:44;;;;;;;11.95;5.60;;;;;;;11.05;58.57;96684.69;2074916;28;20258;-62
2023/04/26 08:48:54;;;;;;;16.33;4.85;;;;;;;10.40;58.34;96692.78;2072683;28;20351;-62
2023/04/26 08:50:02;;;;;;;11.02;3.85;;;;;;;10.28;57.41;96681.91;2080284;28;20200;-62
2023/04/26 08:51:06;;;;;;;14.20;4.68;;;;;;;10.66;58.16;96694.22;2080123;28;20202;-62
2023/04/26 08:52:09;;;;;;;8.38;4.22;;;;;;;11.51;57.27;96692.13;2075320;28;20685;-62
2023/04/26 08:53:16;;;;;;;19.45;4.13;;;;;;;11.84;56.95;96683.56;2073593;28;20224;-63
2023/04/26 08:54:19;;;;;;;8.13;4.15;;;;;;;11.71;55.59;96684.16;2074757;28;20202;-62
2023/04/26 08:55:21;;;;;;;18.88;4.47;;;;;;;11.79;56.27;96688.19;2075057;28;20200;-62
2023/04/26 08:56:23;;;;;;;15.18;4.63;;;;;;;11.56;57.43;96680.50;2067403;28;20247;-62
2023/04/26 08:57:25;;;;;;;6.80;3.65;;;;;;;11.40;56.41;96682.16;2068046;28;20204;-63
2023/04/26 08:58:27;;;;;;;13.52;4.63;;;;;;;11.90;56.29;96688.50;2071833;28;20700;-63
2023/04/26 08:59:34;;;;;;;14.40;4.13;;;;;;;12.02;56.27;96690.53;2070518;28;20194;-63
2023/04/26 09:00:36;;;;;;;15.40;4.40;;;;;;;11.99;55.54;96675.00;2072784;28;20210;-63
2023/04/26 09:01:42;;;;;;;10.32;4.45;;;;;;;12.00;55.26;96691.53;2072239;28;20225;-62
2023/04/26 09:02:51;;;;;;;14.95;4.35;;;;;;;11.75;55.61;96680.47;2072146;28;20739;-62
2023/04/26 09:03:55;;;;;;;9.13;4.10;;;;;;;11.79;54.94;96675.09;2072794;28;20208;-63
2023/04/26 09:04:57;;;;;;;18.17;4.20;;;;;;;11.74;55.17;96684.03;2072685;28;20201;-63
2023/04/26 09:06:00;;;;;;;9.73;3.10;;;;;;;11.35;54.49;96687.63;2071883;28;20194;-63
2023/04/26 09:07:06;;;;;;;13.90;4.00;;;;;;;11.01;53.93;96686.59;2073433;28;20260;-63
2023/04/26 09:08:08;;;;;;;9.43;3.00;;;;;;;10.56;53.82;96677.28;2073114;28;20224;-63
2023/04/26 09:09:11;;;;;;;5.72;3.05;;;;;;;10.56;54.36;96687.72;2070372;28;20559;-62
2023/04/26 09:10:18;;;;;;;9.43;2.90;;;;;;;10.54;53.70;96673.88;2071028;28;20408;-63
2023/04/26 09:11:20;;;;;;;7.78;3.25;;;;;;;10.62;54.06;96680.47;2075422;28;20696;-62
2023/04/26 09:12:21;;;;;;;12.48;3.45;;;;;;;10.68;55.31;96681.09;2073670;28;20212;-62
2023/04/26 09:13:28;;;;;;;11.63;3.75;;;;;;;10.35;55.28;96663.34;2071898;28;20582;-62
2023/04/26 09:14:30;;;;;;;13.60;3.67;;;;;;;10.46;55.52;96684.66;2070692;28;20519;-62
2023/04/26 09:15:32;;;;;;;10.20;4.03;;;;;;;10.52;54.87;96676.56;2073226;28;20581;-63
2023/04/26 09:16:35;;;;;;;10.82;3.70;;;;;;;9.68;53.95;96684.41;2072819;28;20231;-62
2023/04/26 09:17:38;;;;;;;9.18;3.70;;;;;;;9.48;54.95;96669.56;2081336;28;20615;-62
2023/04/26 09:18:50;;;;;;;7.78;3.70;;;;;;;9.63;55.08;96676.75;2082317;28;20200;-62
2023/04/26 09:19:52;;;;;;;11.80;3.97;;;;;;;9.55;56.83;96676.22;2070605;28;20206;-63
2023/04/26 09:21:02;;;;;;;8.60;3.45;;;;;;;9.38;56.47;96666.44;2070957;28;20252;-62
2023/04/26 09:22:05;;;;;;;6.63;3.15;;;;;;;9.38;55.87;96658.63;2074418;28;20835;-62
2023/04/26 09:23:08;;;;;;;13.57;3.53;;;;;;;9.71;54.97;96666.00;2074271;28;20207;-62
2023/04/26 09:24:10;;;;;;;15.30;3.30;;;;;;;9.90;55.48;96673.09;2073098;28;20551;-63
2023/04/26 09:25:12;;;;;;;9.63;4.00;;;;;;;10.06;57.79;96671.53;2070667;28;20232;-63
2023/04/26 09:26:16;;;;;;;13.07;3.90;;;;;;;10.24;56.31;96675.09;2070397;28;20211;-62
2023/04/26 09:27:18;;;;;;;8.50;2.97;;;;;;;10.29;55.64;96670.53;2073917;28;20256;-63
2023/04/26 09:28:21;;;;;;;10.57;4.25;;;;;;;10.01;56.24;96680.47;2072955;28;20199;-62
2023/04/26 09:29:23;;;;;;;13.02;4.00;;;;;;;10.19;56.54;96681.47;2072875;28;20241;-63
2023/04/26 09:30:25;;;;;;;7.57;3.08;;;;;;;10.29;57.89;96662.72;2074855;28;20764;-62
2023/04/26 09:31:39;;;;;;;6.82;3.05;;;;;;;10.66;58.17;96670.72;2071702;28;20223;-62
2023/04/26 09:32:55;;;;;;;7.63;2.92;;;;;;;10.77;56.48;96663.25;2074361;28;20199;-62
2023/04/26 09:33:58;;;;;;;14.50;3.15;;;;;;;10.83;56.13;96656.94;2075042;28;20190;-62
2023/04/26 09:34:59;;;;;;;9.70;2.60;;;;;;;10.98;55.71;96670.19;2074571;28;20212;-62
2023/04/26 09:36:12;;;;;;;11.95;3.00;;;;;;;11.10;55.70;96664.41;2069954;28;20212;-63
2023/04/26 09:37:13;;;;;;;7.57;3.10;;;;;;;10.67;53.24;96669.81;2071646;28;20198;-63
2023/04/26 09:38:16;;;;;;;11.25;3.00;;;;;;;10.49;55.06;96668.88;2070391;28;20210;-62
2023/04/26 09:39:36;;;;;;;9.15;2.60;;;;;;;10.59;55.58;96672.78;2072590;28;20943;-63
2023/04/26 09:40:40;;;;;;;12.25;3.58;;;;;;;10.71;56.14;96670.53;2070883;28;20888;-62
2023/04/26 09:41:45;;;;;;;13.18;2.70;;;;;;;10.60;54.75;96671.00;2068279;28;20305;-63
2023/04/26 09:42:56;;;;;;;8.65;2.35;;;;;;;10.58;54.96;96662.41;2061250;28;20569;-62
2023/04/26 09:43:58;;;;;;;8.73;3.10;;;;;;;10.78;56.17;96664.97;2061599;28;21277;-63
2023/04/26 09:45:06;;;;;;;8.98;2.75;;;;;;;11.03;55.39;96665.59;2069264;28;20212;-62
2023/04/26 09:46:07;;;;;;;4.47;2.70;;;;;;;10.93;53.41;96659.94;2068826;28;20211;-62
2023/04/26 09:47:10;;;;;;;7.05;3.15;;;;;;;10.51;52.28;96661.81;2069427;28;20332;-62
2023/04/26 09:48:21;;;;;;;12.70;3.47;;;;;;;10.08;52.32;96658.41;2064641;28;20237;-62
2023/04/26 09:49:25;;;;;;;7.68;3.58;;;;;;;9.56;53.96;96666.63;2068956;28;20208;-63
2023/04/26 09:50:29;;;;;;;7.35;3.25;;;;;;;9.20;55.49;96657.59;2067823;28;20201;-63
2023/04/26 09:51:31;;;;;;;7.60;2.80;;;;;;;9.38;55.57;96658.63;2063478;28;20259;-62
2023/04/26 09:52:42;;;;;;;11.20;3.50;;;;;;;9.73;56.88;96660.75;2065524;28;20293;-62
2023/04/26 09:53:51;;;;;;;11.23;3.92;;;;;;;9.98;56.73;96652.75;2064726;28;20225;-63
2023/04/26 09:54:55;;;;;;;14.25;4.50;;;;;;;9.86;57.57;96666.31;2066814;28;20199;-62
2023/04/26 09:56:07;;;;;;;15.55;3.80;;;;;;;10.51;57.85;96653.97;2067046;28;20696;-62
2023/04/26 09:57:10;;;;;;;11.32;3.75;;;;;;;10.86;57.96;96663.78;2068111;28;20232;-63
2023/04/26 09:58:11;;;;;;;4.60;2.78;;;;;;;10.97;56.26;96658.91;2068545;28;20774;-63
2023/04/26 09:59:12;;;;;;;15.52;3.78;;;;;;;10.39;56.16;96662.38;2064686;28;20201;-62
2023/04/26 10:00:14;;;;;;;14.98;4.45;;;;;;;10.59;56.55;96649.28;2065965;28;20225;-63
2023/04/26 10:01:17;;;;;;;9.32;3.28;;;;;;;11.67;55.73;96658.22;2071575;28;20227;-63
2023/04/26 10:02:26;;;;;;;11.85;4.43;;;;;;;12.23;55.28;96657.19;2072392;28;20760;-63
2023/04/26 10:03:28;;;;;;;9.10;3.30;;;;;;;12.33;52.90;96646.25;2068787;28;20197;-63
2023/04/26 10:04:30;;;;;;;11.00;3.80;;;;;;;12.13;52.40;96644.69;2067632;28;20213;-63
2023/04/26 10:05:32;;;;;;;14.80;3.20;;;;;;;12.22;51.05;96652.88;2067589;28;20628;-63
2023/04/26 10:06:34;;;;;;;9.90;3.38;;;;;;;12.45;51.21;96655.25;2067575;28;20233;-63
2023/04/26 10:07:36;;;;;;;11.70;3.75;;;;;;;12.24;51.67;96644.97;2068732;28;20202;-62
2023/04/26 10:08:37;;;;;;;7.70;3.63;;;;;;;12.72;51.46;96647.69;2067915;28;20201;-63
2023/04/26 10:09:40;;;;;;;10.70;4.22;;;;;;;13.05;51.69;96658.16;2067992;28;20203;-63
2023/04/26 10:10:42;;;;;;;6.68;3.00;;;;;;;12.86;51.08;96646.97;2064696;28;20194;-63
2023/04/26 10:11:44;;;;;;;6.95;3.60;;;;;;;13.39;50.99;96651.09;2065125;28;20222;-63
2023/04/26 10:12:46;;;;;;;8.10;3.30;;;;;;;13.52;51.24;96637.28;2064912;28;20233;-63
2023/04/26 10:13:50;;;;;;;12.40;3.28;;;;;;;13.45;50.70;96657.75;2072312;28;20205;-63
2023/04/26 10:14:51;;;;;;;16.65;3.55;;;;;;;13.48;51.01;96649.72;2068073;28;20206;-63
2023/04/26 10:15:53;;;;;;;13.70;4.30;;;;;;;13.43;50.78;96645.66;2068592;28;20216;-63
2023/04/26 10:16:55;;;;;;;17.33;4.72;;;;;;;12.34;51.28;96650.56;2068478;28;20230;-63
2023/04/26 10:17:57;;;;;;;8.98;3.75;;;;;;;11.73;51.54;96660.53;2065916;28;20202;-63
2023/04/26 10:18:59;;;;;;;8.95;3.70;;;;;;;11.72;53.22;96651.03;2067680;28;20202;-63
2023/04/26 10:20:04;;;;;;;21.17;4.35;;;;;;;11.63;54.20;96651.47;2068134;28;20198;-64
2023/04/26 10:21:18;;;;;;;11.88;5.25;;;;;;;10.59;54.58;96645.81;2067705;28;20233;-63
2023/04/26 10:22:24;;;;;;;9.07;3.67;;;;;;;11.25;55.83;96639.31;2067310;28;20197;-63
2023/04/26 10:23:27;;;;;;;10.85;4.30;;;;;;;11.46;54.08;96652.28;2064173;28;20194;-63
2023/04/26 10:24:29;;;;;;;12.90;4.18;;;;;;;11.70;53.89;96647.63;2065949;28;20202;-63
2023/04/26 10:25:38;;;;;;;12.90;3.30;;;;;;;11.76;54.09;96647.34;2068025;28;20249;-62
2023/04/26 10:26:52;;;;;;;11.05;3.40;;;;;;;11.70;55.29;96647.63;2063656;28;20229;-63
2023/04/26 10:27:53;;;;;;;9.27;3.17;;;;;;;12.02;54.71;96651.28;2070872;28;20212;-63
2023/04/26 10:28:55;;;;;;;14.38;4.03;;;;;;;11.98;55.09;96652.34;2071588;28;20276;-63
2023/04/26 10:30:06;;;;;;;14.25;3.40;;;;;;;11.99;53.65;96655.84;2066986;28;20580;-63
2023/04/26 10:31:07;;;;;;;11.48;3.20;;;;;;;11.71;53.91;96650.16;2067625;28;20198;-63
2023/04/26 10:32:10;;;;;;;12.30;5.15;;;;;;;11.68;55.90;96650.31;2066554;28;20202;-63
2023/04/26 10:33:15;;;;;;;8.20;3.10;;;;;;;11.92;55.54;96648.25;2067872;28;20198;-63
2023/04/26 10:34:18;;;;;;;11.80;3.90;;;;;;;11.64;53.23;96646.13;2067578;28;20272;-63
2023/04/26 10:35:28;;;;;;;6.90;3.72;;;;;;;11.14;53.61;96647.66;2068191;28;20201;-62
2023/04/26 10:36:29;;;;;;;7.88;3.95;;;;;;;10.98;54.30;96641.44;2067216;28;20225;-63
2023/04/26 10:37:30;;;;;;;11.55;3.90;;;;;;;11.01;55.18;96638.69;2067836;28;20285;-63
2023/04/26 10:38:34;;;;;;;8.82;4.75;;;;;;;11.07;54.26;96651.47;2068680;28;20552;-63
2023/04/26 10:39:36;;;;;;;7.30;4.00;;;;;;;11.23;55.16;96649.84;2068305;28;20234;-63
2023/04/26 10:40:39;;;;;;;8.32;4.07;;;;;;;11.03;54.70;96652.53;2068180;28;20245;-62
2023/04/26 10:41:40;;;;;;;8.63;3.08;;;;;;;10.90;55.79;96644.41;2067645;28;20219;-63
2023/04/26 10:42:42;;;;;;;9.10;3.83;;;;;;;11.06;56.34;96647.19;2065995;28;20202;-63
2023/04/26 10:43:43;;;;;;;10.13;3.15;;;;;;;11.42;56.12;96641.13;2066125;28;20836;-63
2023/04/26 10:44:45;;;;;;;10.93;4.30;;;;;;;11.54;54.92;96639.66;2069382;28;20194;-63
2023/04/26 10:45:47;;;;;;;11.50;3.80;;;;;;;11.48;54.85;96642.56;2068037;28;20201;-63
2023/04/26 10:46:50;;;;;;;12.05;3.60;;;;;;;11.44;54.25;96642.75;2067367;28;20682;-63
2023/04/26 10:48:13;;;;;;;13.63;3.40;;;;;;;11.57;53.96;96642.16;2069338;28;20608;-63
2023/04/26 10:49:16;;;;;;;10.35;3.58;;;;;;;11.55;54.08;96642.22;2069564;28;20225;-62
2023/04/26 10:50:18;;;;;;;9.45;3.00;;;;;;;11.82;53.63;96640.94;2069950;28;21110;-63
2023/04/26 10:51:20;;;;;;;9.50;3.33;;;;;;;11.72;53.47;96644.00;2069416;28;20221;-62
2023/04/26 10:52:22;;;;;;;8.05;3.00;;;;;;;11.48;54.24;96637.34;2063841;28;20222;-63
2023/04/26 10:53:23;;;;;;;6.57;2.95;;;;;;;11.54;54.73;96626.59;2065199;28;20222;-63
2023/04/26 10:54:25;;;;;;;11.32;3.05;;;;;;;11.53;55.33;96641.44;2066830;28;20233;-62
2023/04/26 10:55:42;;;;;;;9.18;3.80;;;;;;;11.52;53.87;96644.16;2068685;28;20233;-62
2023/04/26 10:56:47;;;;;;;6.13;2.95;;;;;;;11.52;53.30;96639.75;2073688;28;20652;-63
2023/04/26 10:57:53;;;;;;;10.40;3.00;;;;;;;11.52;53.08;96638.91;2075413;28;20641;-63
2023/04/26 10:59:08;;;;;;;10.63;3.80;;;;;;;10.96;54.53;96638.91;2066857;28;20281;-63
2023/04/26 11:00:30;;;;;;;18.90;3.72;;;;;;;10.86;54.92;96645.50;2067514;28;20256;-62
2023/04/26 11:01:34;;;;;;;6.30;3.40;;;;;;;10.81;52.73;96645.69;2068155;28;20430;-62
2023/04/26 11:02:51;;;;;;;11.65;3.72;;;;;;;10.28;52.56;96649.72;2066808;28;20237;-63
2023/04/26 11:03:56;;;;;;;14.25;3.40;;;;;;;10.40;53.74;96651.00;2069231;28;20241;-62
2023/04/26 11:05:01;;;;;;;9.77;3.13;;;;;;;10.27;52.82;96640.19;2068511;28;20288;-62
2023/04/26 11:06:08;;;;;;;8.20;2.80;;;;;;;10.03;53.69;96637.75;2066651;28;20206;-63
2023/04/26 11:07:12;;;;;;;17.98;3.80;;;;;;;10.08;54.00;96637.53;2068035;28;20272;-63
2023/04/26 11:08:18;;;;;;;11.60;3.30;;;;;;;10.37;53.50;96640.69;2067727;28;20852;-63
2023/04/26 11:09:36;;;;;;;11.00;3.60;;;;;;;10.67;54.59;96635.03;2068470;28;20728;-62
2023/04/26 11:10:37;;;;;;;12.95;3.28;;;;;;;10.69;53.64;96618.38;2066771;28;20210;-63
2023/04/26 11:11:52;;;;;;;8.82;3.50;;;;;;;10.66;52.71;96630.72;2063887;28;20226;-63
2023/04/26 11:13:02;;;;;;;13.90;3.55;;;;;;;10.66;52.65;96636.78;2067723;28;20228;-63
2023/04/26 11:14:04;;;;;;;11.52;4.03;;;;;;;10.99;52.13;96630.09;2068190;28;20267;-63
2023/04/26 11:15:06;;;;;;;7.82;3.13;;;;;;;10.64;52.29;96615.13;2067023;28;20213;-63
2023/04/26 11:16:12;;;;;;;11.38;3.45;;;;;;;10.51;52.41;96625.25;2065985;28;20559;-62
2023/04/26 11:17:14;;;;;;;9.85;4.03;;;;;;;10.87;52.25;96631.47;2066335;28;20203;-63
2023/04/26 11:18:18;;;;;;;15.70;3.80;;;;;;;11.41;51.68;96627.22;2068559;28;20229;-63
2023/04/26 11:19:20;;;;;;;6.40;2.92;;;;;;;12.27;51.22;96609.94;2067345;28;20294;-63
2023/04/26 11:20:22;;;;;;;11.30;3.00;;;;;;;12.53;51.04;96616.41;2067642;28;20201;-62
2023/04/26 11:21:25;;;;;;;4.05;2.38;;;;;;;12.89;50.98;96605.72;2067400;28;20228;-63
2023/04/26 11:22:28;;;;;;;7.80;3.10;;;;;;;13.29;50.00;96610.53;2065888;28;20204;-63
2023/04/26 11:23:30;;;;;;;11.60;3.03;;;;;;;13.64;49.18;96607.72;2067483;28;20229;-66
2023/04/26 11:24:35;;;;;;;16.15;8.45;;;;;;;13.66;48.94;96605.88;2068038;28;20226;-62
2023/04/26 11:25:38;;;;;;;104.93;57.22;;;;;;;13.61;48.51;96604.41;2067447;28;20808;-62
2023/04/26 11:26:40;;;;;;;103.95;59.75;;;;;;;14.15;47.23;96607.38;2063364;28;20285;-62
2023/04/26 11:27:42;;;;;;;27.90;15.40;;;;;;;14.44;45.57;96606.56;2065972;28;20198;-63
2023/04/26 11:28:45;;;;;;;15.20;3.20;;;;;;;14.80;45.13;96606.09;2066398;28;20202;-63
2023/04/26 11:29:46;;;;;;;8.48;2.97;;;;;;;13.39;48.18;96600.41;2065100;28;20214;-62
2023/04/26 11:30:49;;;;;;;7.25;3.20;;;;;;;12.97;49.16;96589.56;2068307;28;20300;-62
2023/04/26 11:31:55;;;;;;;9.68;3.05;;;;;;;13.88;46.39;96594.13;2065666;28;20237;-61
2023/04/26 11:33:00;;;;;;;5.50;2.47;;;;;;;14.41;45.90;96593.59;2065142;28;20241;-62
2023/04/26 11:34:05;;;;;;;13.82;3.30;;;;;;;14.43;45.86;96587.31;2067618;28;20285;-62
2023/04/26 11:35:07;;;;;;;11.80;2.97;;;;;;;13.80;46.41;96591.06;2063892;28;20206;-62
2023/04/26 11:36:09;;;;;;;14.43;2.95;;;;;;;13.44;46.21;96584.41;2064552;28;20199;-61
2023/04/26 11:37:10;;;;;;;11.70;3.45;;;;;;;12.29;51.00;96581.88;2067336;28;20198;-62
2023/04/26 11:38:12;;;;;;;12.20;3.70;;;;;;;14.35;48.80;96585.16;2066223;28;20551;-63
2023/04/26 11:39:14;;;;;;;14.98;4.53;;;;;;;14.60;47.52;96581.03;2066592;28;20206;-64
2023/04/26 11:40:15;;;;;;;14.10;3.05;;;;;;;12.30;47.73;96583.56;2066257;28;20229;-63
2023/04/26 11:41:17;;;;;;;7.80;3.20;;;;;;;12.88;48.33;96582.22;2066528;28;20289;-64
2023/04/26 11:42:24;;;;;;;11.55;3.60;;;;;;;13.81;49.35;96579.66;2067103;28;20693;-64
2023/04/26 11:43:43;;;;;;;8.93;3.00;;;;;;;14.43;49.18;96560.22;2065905;28;20231;-64
2023/04/26 11:44:45;;;;;;;11.57;3.20;;;;;;;14.89;47.91;96581.00;2066697;28;20316;-63
2023/04/26 11:45:48;;;;;;;6.63;3.10;;;;;;;15.00;48.73;96572.47;2067430;28;20207;-63
2023/04/26 11:46:50;;;;;;;9.35;3.08;;;;;;;14.70;47.63;96573.44;2065441;28;20676;-64
2023/04/26 11:47:52;;;;;;;12.50;3.28;;;;;;;13.69;48.42;96565.47;2066769;28;20224;-64
2023/04/26 11:48:54;;;;;;;7.90;2.70;;;;;;;14.32;47.29;96564.34;2064086;28;20237;-64
2023/04/26 11:49:56;;;;;;;10.13;2.95;;;;;;;14.09;46.06;96578.00;2067302;28;20205;-64
2023/04/26 11:50:58;;;;;;;8.45;2.92;;;;;;;14.26;47.70;96569.09;2067714;28;20214;-64
2023/04/26 11:52:01;;;;;;;6.25;2.90;;;;;;;14.13;47.33;96576.88;2070224;28;20550;-64
2023/04/26 11:53:03;;;;;;;8.82;4.70;;;;;;;14.08;46.61;96569.31;2068084;28;20233;-64
2023/04/26 11:54:05;;;;;;;6.93;2.88;;;;;;;14.01;48.31;96568.81;2067182;28;20202;-64
2023/04/26 11:55:09;;;;;;;13.45;3.45;;;;;;;13.80;45.24;96568.31;2065977;28;20666;-63
2023/04/26 11:56:18;;;;;;;11.85;3.45;;;;;;;13.78;45.52;96564.94;2063465;28;20213;-64
2023/04/26 11:57:19;;;;;;;8.15;3.00;;;;;;;14.28;45.50;96562.00;2065549;28;20232;-63
2023/04/26 11:58:21;;;;;;;8.25;3.00;;;;;;;13.31;45.47;96568.50;2066481;28;20210;-63
2023/04/26 11:59:24;;;;;;;17.95;3.50;;;;;;;12.64;46.71;96561.66;2067227;28;20208;-64
2023/04/26 12:00:26;;;;;;;8.63;3.60;;;;;;;12.50;46.88;96572.06;2067857;28;20290;-65
2023/04/26 12:01:28;;;;;;;7.78;3.50;;;;;;;13.04;46.07;96569.97;2067564;28;20233;-63
2023/04/26 12:02:30;;;;;;;8.15;2.97;;;;;;;13.28;45.64;96574.78;2065900;28;20198;-63
2023/04/26 12:03:36;;;;;;;9.02;3.33;;;;;;;12.55;47.82;96568.25;2067213;28;20642;-63
2023/04/26 12:04:40;;;;;;;9.40;3.10;;;;;;;12.71;47.43;96570.88;2069426;28;20198;-63
2023/04/26 12:05:53;;;;;;;8.68;3.28;;;;;;;12.96;46.75;96566.91;2065211;28;20845;-63
2023/04/26 12:06:56;;;;;;;8.13;2.75;;;;;;;13.39;46.35;96572.41;2066122;28;20225;-63
2023/04/26 12:07:59;;;;;;;10.82;4.05;;;;;;;14.02;45.30;96570.50;2067893;28;20704;-63
2023/04/26 12:09:04;;;;;;;14.02;2.58;;;;;;;14.13;45.50;96571.63;2065710;28;20565;-63